createdAt,value
2022-11-10T00:01:45.057Z,2.70
2022-11-10T00:04:47.992Z,2.87
2022-11-10T00:08:04.168Z,2.73
2022-11-10T00:11:08.829Z,3.30
2022-11-10T00:14:30.730Z,2.60
2022-11-10T00:17:36.257Z,3.83
2022-11-10T00:20:39.407Z,2.63
2022-11-10T00:23:43.050Z,3.20
2022-11-10T00:26:46.065Z,2.87
2022-11-10T00:29:50.445Z,3.10
2022-11-10T00:32:53.392Z,2.93
2022-11-10T00:35:56.336Z,3.33
2022-11-10T00:39:00.572Z,3.20
2022-11-10T00:42:05.028Z,3.10
2022-11-10T00:45:11.354Z,3.30
2022-11-10T00:48:15.441Z,3.13
2022-11-10T00:51:31.118Z,3.30
2022-11-10T00:54:34.096Z,3.53
2022-11-10T00:57:37.034Z,3.07
2022-11-10T01:00:41.975Z,3.77
2022-11-10T01:03:46.145Z,3.20
2022-11-10T01:06:49.129Z,3.10
2022-11-10T01:09:52.116Z,3.13
2022-11-10T01:12:55.346Z,2.93
2022-11-10T01:16:04.895Z,3.00
2022-11-10T01:19:07.832Z,3.30
2022-11-10T01:22:15.291Z,3.47
2022-11-10T01:25:18.209Z,3.23
2022-11-10T01:28:21.223Z,3.33
2022-11-10T01:31:25.491Z,2.90
2022-11-10T01:34:28.408Z,3.13
2022-11-10T01:37:32.558Z,3.40
2022-11-10T01:40:36.744Z,3.17
2022-11-10T01:43:40.205Z,2.60
2022-11-10T01:46:45.693Z,3.30
2022-11-10T01:49:48.744Z,3.30
2022-11-10T01:52:55.625Z,3.20
2022-11-10T01:55:59.151Z,3.30
2022-11-10T01:59:14.666Z,3.07
2022-11-10T02:02:34.391Z,3.00
2022-11-10T02:05:37.674Z,2.90
2022-11-10T02:08:42.078Z,2.97
2022-11-10T02:11:46.340Z,3.30
2022-11-10T02:14:49.259Z,3.10
2022-11-10T02:17:53.762Z,3.20
2022-11-10T02:20:58.127Z,3.07
2022-11-10T02:24:01.036Z,2.93
2022-11-10T02:27:04.144Z,3.67
2022-11-10T02:30:08.350Z,2.90
2022-11-10T02:33:11.299Z,3.60
2022-11-10T02:36:15.697Z,3.30
2022-11-10T02:39:18.589Z,3.10
2022-11-10T02:42:21.954Z,3.03
2022-11-10T02:45:24.896Z,3.17
2022-11-10T02:48:27.862Z,2.73
2022-11-10T02:51:32.224Z,3.13
2022-11-10T02:54:35.132Z,3.00
2022-11-10T02:57:38.828Z,3.00
2022-11-10T03:00:41.741Z,3.57
2022-11-10T03:03:47.769Z,3.30
2022-11-10T03:06:52.161Z,2.97
2022-11-10T03:09:56.026Z,3.00
2022-11-10T03:13:03.931Z,3.20
2022-11-10T03:16:07.314Z,3.50
2022-11-10T03:19:10.384Z,3.37
2022-11-10T03:22:14.796Z,3.60
2022-11-10T03:25:17.788Z,3.20
2022-11-10T03:28:20.771Z,3.70
2022-11-10T03:31:23.781Z,3.70
2022-11-10T03:34:30.762Z,3.87
2022-11-10T03:37:36.886Z,3.07
2022-11-10T03:41:12.117Z,3.13
2022-11-10T03:44:02.844Z,3.20
2022-11-10T03:47:06.068Z,3.50
2022-11-10T03:50:09.762Z,4.27
2022-11-10T03:53:14.011Z,3.50
2022-11-10T03:56:17.721Z,3.60
2022-11-10T03:59:20.627Z,3.40
2022-11-10T04:02:23.582Z,3.90
2022-11-10T04:05:47.010Z,3.10
2022-11-10T04:09:00.023Z,3.60
2022-11-10T04:12:24.574Z,3.83
2022-11-10T04:15:47.552Z,3.50
2022-11-10T04:18:50.461Z,3.50
2022-11-10T04:21:53.580Z,3.53
2022-11-10T04:24:57.814Z,3.40
2022-11-10T04:28:00.723Z,4.00
2022-11-10T04:31:03.743Z,3.60
2022-11-10T04:34:07.663Z,3.90
2022-11-10T04:37:10.635Z,4.40
2022-11-10T04:40:15.241Z,3.90
2022-11-10T04:43:18.202Z,3.90
2022-11-10T04:46:24.381Z,3.63
2022-11-10T04:49:27.479Z,3.90
2022-11-10T04:52:30.386Z,3.77
2022-11-10T04:55:34.748Z,4.07
2022-11-10T04:58:37.739Z,3.50
2022-11-10T05:01:40.646Z,4.10
2022-11-10T05:04:43.662Z,3.60
2022-11-10T05:07:48.915Z,3.60
2022-11-10T05:10:59.531Z,4.33
2022-11-10T05:14:02.460Z,3.90
2022-11-10T05:17:05.396Z,4.00
2022-11-10T05:20:10.216Z,4.53
2022-11-10T05:23:30.968Z,3.80
2022-11-10T05:26:35.305Z,4.33
2022-11-10T05:29:38.456Z,4.20
2022-11-10T05:32:41.410Z,4.30
2022-11-10T05:35:44.843Z,4.00
2022-11-10T05:38:50.559Z,4.20
2022-11-10T05:41:55.299Z,3.87
2022-11-10T05:44:58.283Z,4.43
2022-11-10T05:48:01.402Z,3.80
2022-11-10T05:51:04.575Z,3.97
2022-11-10T05:54:08.617Z,4.77
2022-11-10T05:57:12.931Z,4.17
2022-11-10T06:00:18.141Z,4.00
2022-11-10T06:03:22.017Z,4.70
2022-11-10T06:06:25.271Z,3.93
2022-11-10T06:09:28.207Z,4.43
2022-11-10T06:12:32.496Z,4.80
2022-11-10T06:15:35.643Z,4.60
2022-11-10T06:18:38.561Z,4.30
2022-11-10T06:21:42.126Z,4.23
2022-11-10T06:24:45.051Z,4.10
2022-11-10T06:27:49.352Z,4.40
2022-11-10T06:30:52.308Z,4.60
2022-11-10T06:33:55.558Z,5.00
2022-11-10T06:36:58.466Z,4.97
2022-11-10T06:40:01.450Z,5.27
2022-11-10T06:43:05.960Z,4.53
2022-11-10T06:46:12.309Z,4.43
2022-11-10T06:49:15.471Z,4.80
2022-11-10T06:52:18.464Z,4.60
2022-11-10T06:55:21.396Z,4.77
2022-11-10T06:58:25.681Z,4.63
2022-11-10T07:01:28.708Z,4.47
2022-11-10T07:04:31.680Z,4.67
2022-11-10T07:07:34.696Z,4.70
2022-11-10T07:10:38.588Z,4.83
2022-11-10T07:13:44.090Z,4.50
2022-11-10T07:16:47.053Z,4.73
2022-11-10T07:19:49.998Z,4.30
2022-11-10T07:22:58.931Z,4.73
2022-11-10T07:26:02.111Z,4.60
2022-11-10T07:29:06.414Z,5.20
2022-11-10T07:32:09.548Z,4.87
2022-11-10T07:35:13.083Z,4.60
2022-11-10T07:38:16.010Z,4.00
2022-11-10T07:41:18.991Z,4.77
2022-11-10T07:44:23.277Z,4.50
2022-11-10T07:47:26.283Z,4.83
2022-11-10T07:50:29.398Z,4.80
2022-11-10T07:53:32.303Z,4.63
2022-11-10T07:56:35.262Z,4.90
2022-11-10T07:59:39.529Z,4.63
2022-11-10T08:02:42.491Z,4.97
2022-11-10T08:05:45.915Z,6.73
2022-11-10T08:08:48.943Z,5.50
2022-11-10T08:11:51.932Z,5.77
2022-11-10T08:14:56.244Z,6.70
2022-11-10T08:18:04.397Z,6.00
2022-11-10T08:21:07.852Z,5.30
2022-11-10T08:24:11.080Z,4.50
2022-11-10T08:27:14.415Z,5.30
2022-11-10T08:30:19.097Z,5.30
2022-11-10T08:33:23.236Z,5.30
2022-11-10T08:36:26.681Z,5.40
2022-11-10T08:39:38.940Z,5.87
2022-11-10T08:42:42.555Z,5.47
2022-11-10T08:45:47.527Z,5.47
2022-11-10T08:48:50.449Z,7.20
2022-11-10T08:51:53.416Z,5.63
2022-11-10T08:54:56.326Z,5.63
2022-11-10T08:58:00.830Z,5.40
2022-11-10T09:01:11.507Z,5.57
2022-11-10T09:04:15.824Z,5.50
2022-11-10T09:07:18.927Z,5.37
2022-11-10T09:10:21.999Z,4.77
2022-11-10T09:13:29.501Z,5.33
2022-11-10T09:16:34.690Z,5.50
2022-11-10T09:19:50.653Z,5.20
2022-11-10T09:22:53.649Z,5.00
2022-11-10T09:25:57.534Z,5.00
2022-11-10T09:29:00.581Z,5.87
2022-11-10T09:32:04.922Z,4.80
2022-11-10T09:35:08.517Z,5.17
2022-11-10T09:38:11.870Z,5.27
2022-11-10T09:41:16.155Z,4.73
2022-11-10T09:44:25.918Z,5.10
2022-11-10T09:51:05.157Z,4.63
2022-11-10T09:54:18.806Z,5.77
2022-11-10T09:57:25.281Z,5.97
2022-11-10T10:00:31.837Z,5.33
2022-11-10T10:03:40.490Z,4.40
2022-11-10T10:07:10.779Z,5.67
2022-11-10T10:10:20.301Z,4.57
2022-11-10T10:13:50.039Z,5.43
2022-11-10T10:17:01.743Z,5.17
2022-11-10T10:20:16.069Z,5.47
2022-11-10T10:23:46.877Z,5.00
2022-11-10T10:26:53.789Z,4.67
2022-11-10T10:30:17.551Z,4.73
2022-11-10T10:33:22.463Z,8.17
2022-11-10T10:36:29.104Z,5.30
2022-11-10T10:39:38.244Z,5.30
2022-11-10T10:42:41.251Z,4.40
2022-11-10T10:46:08.056Z,4.60
2022-11-10T10:49:31.828Z,4.67
2022-11-10T10:52:36.280Z,4.77
2022-11-10T10:55:39.916Z,4.63
2022-11-10T10:58:54.418Z,4.70
2022-11-10T11:01:57.635Z,4.30
2022-11-10T11:05:13.176Z,4.30
2022-11-10T11:08:20.032Z,4.47
2022-11-10T11:11:26.810Z,3.80
2022-11-10T11:14:31.500Z,4.53
2022-11-10T11:17:34.664Z,5.07
2022-11-10T11:20:46.938Z,4.73
2022-11-10T11:24:05.425Z,4.40
2022-11-10T11:27:19.132Z,4.50
2022-11-10T11:30:24.279Z,4.50
2022-11-10T11:33:39.157Z,4.23
2022-11-10T11:36:48.642Z,4.00
2022-11-10T11:40:03.432Z,4.17
2022-11-10T11:43:19.891Z,4.17
2022-11-10T11:46:31.607Z,5.37
2022-11-10T11:50:04.926Z,3.87
2022-11-10T11:53:20.599Z,4.67
2022-11-10T11:56:28.128Z,3.93
2022-11-10T12:00:03.564Z,3.80
2022-11-10T12:03:33.128Z,3.77
2022-11-10T12:06:44.863Z,4.30
2022-11-10T12:10:02.642Z,4.30
2022-11-10T12:13:30.165Z,3.93
2022-11-10T12:16:35.935Z,3.73
2022-11-10T12:19:46.009Z,4.50
2022-11-10T12:22:56.401Z,4.17
2022-11-10T12:26:08.141Z,3.50
2022-11-10T12:29:30.306Z,3.97
2022-11-10T12:32:42.977Z,3.50
2022-11-10T12:35:47.804Z,3.87
2022-11-10T12:39:00.084Z,4.27
2022-11-10T12:42:13.673Z,4.07
2022-11-10T12:45:31.565Z,3.80
2022-11-10T12:48:47.436Z,4.40
2022-11-10T12:51:54.313Z,3.73
2022-11-10T12:54:57.235Z,4.20
2022-11-10T12:58:01.399Z,3.90
2022-11-10T13:01:13.897Z,4.07
2022-11-10T13:04:25.837Z,3.80
2022-11-10T13:07:30.048Z,3.60
2022-11-10T13:10:33.089Z,3.90
2022-11-10T13:13:43.078Z,4.00
2022-11-10T13:16:56.432Z,3.63
2022-11-10T13:20:27.521Z,3.33
2022-11-10T13:23:26.550Z,3.70
2022-11-10T13:26:48.782Z,3.43
2022-11-10T13:29:57.804Z,3.70
2022-11-10T13:33:30.947Z,3.53
2022-11-10T13:36:45.796Z,3.57
2022-11-10T13:39:48.760Z,3.60
2022-11-10T13:43:26.825Z,4.10
2022-11-10T13:46:35.930Z,3.40
2022-11-10T13:49:56.421Z,3.57
2022-11-10T13:53:16.123Z,3.73
2022-11-10T13:56:35.881Z,3.70
2022-11-10T13:59:48.844Z,3.77
2022-11-10T14:02:54.898Z,3.70
2022-11-10T14:06:11.303Z,3.57
2022-11-10T14:09:27.553Z,3.47
2022-11-10T14:12:35.268Z,3.30
2022-11-10T14:15:41.749Z,3.17
2022-11-10T14:18:50.321Z,3.87
2022-11-10T14:21:59.463Z,3.60
2022-11-10T14:25:07.535Z,3.67
2022-11-10T14:28:27.102Z,3.47
2022-11-10T14:31:30.190Z,3.47
2022-11-10T14:34:43.604Z,3.50
2022-11-10T14:37:46.584Z,3.47
2022-11-10T14:40:51.741Z,3.60
2022-11-10T14:44:02.725Z,3.60
2022-11-10T14:47:25.910Z,3.47
2022-11-10T14:50:32.040Z,3.67
2022-11-10T14:53:36.565Z,3.43
2022-11-10T14:56:43.998Z,3.30
2022-11-10T14:59:47.280Z,3.90
2022-11-10T15:02:50.564Z,5.27
2022-11-10T15:05:53.732Z,3.90
2022-11-10T15:08:58.368Z,3.77
2022-11-10T15:12:21.266Z,3.33
2022-11-10T15:15:27.450Z,4.03
2022-11-10T15:18:31.273Z,3.37
2022-11-10T15:21:34.446Z,4.03
2022-11-10T15:24:37.467Z,3.70
2022-11-10T15:27:41.999Z,4.03
2022-11-10T15:30:53.424Z,4.00
2022-11-10T15:33:58.915Z,4.00
2022-11-10T15:37:23.922Z,3.80
2022-11-10T15:40:35.851Z,4.00
2022-11-10T15:43:40.722Z,4.03
2022-11-10T15:46:44.163Z,4.13
2022-11-10T15:49:47.836Z,4.20
2022-11-10T15:52:50.956Z,4.47
2022-11-10T15:55:57.566Z,4.17
2022-11-10T15:59:03.832Z,3.40
2022-11-10T16:02:17.168Z,4.00
2022-11-10T16:05:20.242Z,4.47
2022-11-10T16:08:24.627Z,4.27
2022-11-10T16:11:28.356Z,4.20
2022-11-10T16:14:32.759Z,4.60
2022-11-10T16:17:36.395Z,5.03
2022-11-10T16:20:40.941Z,5.50
2022-11-10T16:23:44.265Z,4.90
2022-11-10T16:26:47.203Z,4.80
2022-11-10T16:29:51.455Z,4.80
2022-11-10T16:32:54.972Z,5.30
2022-11-10T16:35:58.002Z,4.57
2022-11-10T16:39:04.087Z,4.67
2022-11-10T16:42:07.052Z,5.40
2022-11-10T16:45:16.894Z,4.63
2022-11-10T16:48:23.453Z,4.47
2022-11-10T16:51:30.602Z,4.97
2022-11-10T16:54:33.615Z,4.47
2022-11-10T16:57:39.927Z,5.60
2022-11-10T17:00:45.385Z,4.83
2022-11-10T17:03:50.499Z,5.10
2022-11-10T17:06:53.536Z,5.50
2022-11-10T17:10:00.220Z,6.57
2022-11-10T17:13:03.263Z,6.80
2022-11-10T17:16:13.734Z,6.83
2022-11-10T17:19:20.819Z,6.00
2022-11-10T17:22:34.386Z,5.63
2022-11-10T17:25:37.631Z,6.00
2022-11-10T17:28:40.527Z,5.90
2022-11-10T17:31:45.590Z,5.57
2022-11-10T17:34:48.495Z,5.63
2022-11-10T17:37:55.464Z,5.50
2022-11-10T17:40:58.572Z,5.40
2022-11-10T17:44:15.253Z,7.03
2022-11-10T17:47:19.542Z,5.57
2022-11-10T17:50:24.593Z,5.17
2022-11-10T17:53:29.333Z,4.93
2022-11-10T17:56:32.328Z,5.70
2022-11-10T17:59:35.300Z,4.73
2022-11-10T18:02:41.534Z,5.40
2022-11-10T18:05:45.173Z,5.33
2022-11-10T18:08:50.951Z,5.03
2022-11-10T18:11:53.888Z,5.43
2022-11-10T18:15:00.324Z,5.40
2022-11-10T18:18:04.815Z,5.00
2022-11-10T18:21:08.292Z,4.80
2022-11-10T18:24:11.335Z,4.80
2022-11-10T18:27:14.280Z,5.00
2022-11-10T18:30:19.051Z,4.97
2022-11-10T18:33:23.643Z,5.70
2022-11-10T18:36:26.898Z,5.20
2022-11-10T18:39:29.801Z,5.30
2022-11-10T18:42:34.363Z,4.70
2022-11-10T18:45:37.548Z,5.37
2022-11-10T18:48:42.476Z,5.13
2022-11-10T18:51:45.384Z,4.90
2022-11-10T18:54:48.294Z,5.50
2022-11-10T18:57:57.321Z,5.67
2022-11-10T19:01:04.559Z,4.90
2022-11-10T19:04:09.179Z,4.83
2022-11-10T19:07:12.491Z,4.67
2022-11-10T19:10:15.386Z,5.20
2022-11-10T19:13:18.550Z,4.73
2022-11-10T19:16:21.505Z,5.40
2022-11-10T19:19:25.915Z,4.90
2022-11-10T19:22:29.304Z,4.93
2022-11-10T19:25:32.574Z,5.07
2022-11-10T19:28:35.514Z,4.63
2022-11-10T19:31:38.355Z,4.80
2022-11-10T19:34:42.772Z,4.93
2022-11-10T19:37:48.106Z,4.97
2022-11-10T19:40:51.075Z,5.17
2022-11-10T19:43:54.787Z,4.50
2022-11-10T19:47:00.568Z,5.17
2022-11-10T19:50:05.451Z,4.83
2022-11-10T19:53:17.418Z,5.10
2022-11-10T19:56:27.599Z,5.43
2022-11-10T19:59:33.671Z,5.13
2022-11-10T20:02:46.028Z,5.17
2022-11-10T20:05:58.924Z,5.20
2022-11-10T20:09:01.864Z,5.43
2022-11-10T20:12:05.074Z,5.43
2022-11-10T20:15:09.280Z,5.27
2022-11-10T20:18:13.407Z,4.90
2022-11-10T20:21:20.889Z,5.03
2022-11-10T20:24:23.846Z,4.93
2022-11-10T20:27:26.803Z,5.13
2022-11-10T20:30:30.758Z,4.87
2022-11-10T20:33:34.984Z,4.90
2022-11-10T20:36:39.498Z,5.97
2022-11-10T20:39:42.404Z,5.80
2022-11-10T20:42:45.735Z,5.20
2022-11-10T20:45:48.978Z,4.87
2022-11-10T20:48:51.954Z,5.20
2022-11-10T20:52:03.242Z,5.17
2022-11-10T20:55:06.985Z,5.60
2022-11-10T20:58:09.948Z,5.50
2022-11-10T21:01:15.132Z,5.13
2022-11-10T21:04:18.070Z,5.27
2022-11-10T21:07:22.365Z,6.07
2022-11-10T21:10:25.274Z,5.57
2022-11-10T21:13:29.233Z,5.60
2022-11-10T21:16:32.174Z,5.20
2022-11-10T21:19:35.075Z,4.93
2022-11-10T21:22:45.469Z,5.27
2022-11-10T21:25:53.740Z,5.10
2022-11-10T21:28:56.761Z,5.30
2022-11-10T21:31:59.668Z,5.47
2022-11-10T21:35:02.685Z,5.07
2022-11-10T21:38:07.193Z,5.23
2022-11-10T21:41:10.171Z,4.87
2022-11-10T21:44:13.083Z,4.77
2022-11-10T21:47:16.271Z,4.40
2022-11-10T21:50:20.141Z,4.17
2022-11-10T21:53:24.983Z,4.80
2022-11-10T21:56:30.343Z,4.70
2022-11-10T21:59:33.226Z,4.93
2022-11-10T22:02:36.117Z,5.67
2022-11-10T22:05:39.024Z,5.03
2022-11-10T22:08:45.792Z,5.80
2022-11-10T22:12:06.390Z,4.90
2022-11-10T22:15:31.970Z,4.70
2022-11-10T22:18:45.039Z,4.67
2022-11-10T22:22:04.113Z,4.70
2022-11-10T22:25:09.555Z,4.50
2022-11-10T22:28:13.760Z,5.10
2022-11-10T22:31:19.788Z,4.83
2022-11-10T22:34:25.538Z,4.93
2022-11-10T22:37:32.895Z,5.17
2022-11-10T22:40:54.953Z,5.43
2022-11-10T22:44:06.685Z,4.80
2022-11-10T22:47:09.637Z,5.10
2022-11-10T22:50:12.688Z,5.53
2022-11-10T22:53:15.663Z,5.13
2022-11-10T22:56:19.990Z,5.23
2022-11-10T22:59:22.947Z,4.93
2022-11-10T23:02:25.886Z,5.03
2022-11-10T23:05:28.887Z,5.03
2022-11-10T23:08:32.175Z,4.57
2022-11-10T23:11:37.855Z,5.03
2022-11-10T23:14:40.722Z,5.07
2022-11-10T23:17:43.652Z,4.90
2022-11-10T23:20:48.224Z,4.83
2022-11-10T23:23:53.457Z,4.33
2022-11-10T23:26:57.863Z,5.00
2022-11-10T23:30:03.624Z,5.13
2022-11-10T23:33:06.604Z,4.70
2022-11-10T23:36:11.414Z,4.90
2022-11-10T23:39:14.392Z,4.90
2022-11-10T23:42:18.657Z,4.60
2022-11-10T23:45:21.656Z,4.83
2022-11-10T23:48:25.050Z,5.30
2022-11-10T23:51:28.257Z,4.70
2022-11-10T23:54:31.227Z,5.03
2022-11-10T23:57:35.537Z,4.80
